Latest Weather Observations for Adele Island

IDW60801

Issued at 10:32 pm WST Tuesday 21 April 2015 (issued every 30 minutes, with the page automatically refreshed every 10 minutes)

About weather observations | Map of weather stations | Latest weather observations for WA | Other Formats
Station Details ID: 200735 Name: ADELE ISLAND Lat: -15.51 Lon: 123.16 Height: 4.6 m
Data from the previous 72 hours. | See also: Recent months for locations in Western Australia
Date/Time
WST
Temp
°C
App
Temp
°C
Dew
Point
Rel
Hum
%
Delta-T
°C
Wind Press
QNH
hPa
Press
MSL
hPa
Rain
since 9 am
mm
Dir
 
Spd
km/h
Gust
km/h
Spd
kts
Gust
kts
21/10:30pm 29.5 - - - - NNE 32 37 17 20 1010.8 1010.7 -
21/10:00pm 28.9 - - - - NE 30 37 16 20 1010.8 1010.7 -
21/09:30pm 29.1 - - - - NNE 30 35 16 19 1011.1 1011.0 -
21/09:00pm 28.8 - - - - NE 28 35 15 19 1011.0 1010.9 -
21/08:30pm 29.0 - - - - NNE 28 32 15 17 1011.0 1010.9 -
21/08:00pm 28.6 - - - - NNE 26 30 14 16 1010.7 1010.6 -
21/07:30pm 28.9 - - - - NE 32 39 17 21 1010.5 1010.4 -
21/07:00pm 29.1 - - - - NE 32 37 17 20 1010.1 1010.0 -
21/06:30pm 29.0 - - - - NE 32 37 17 20 1009.5 1009.4 -
21/06:00pm 29.0 - - - - NE 35 44 19 24 1009.1 1009.0 -
21/05:30pm 29.1 - - - - NE 33 43 18 23 1009.1 1009.0 -
21/05:00pm 28.9 - - - - NE 33 41 18 22 1009.1 1009.0 -
21/04:30pm 29.0 - - - - NE 37 46 20 25 1008.8 1008.7 -
21/04:00pm 29.1 - - - - NE 35 43 19 23 1008.7 1008.6 -
21/03:30pm 29.1 - - - - NE 32 39 17 21 1008.7 1008.6 -
21/03:00pm 29.0 - - - - NE 32 39 17 21 1008.8 1008.7 -
21/02:30pm 29.0 - - - - NE 37 44 20 24 1009.1 1009.0 -
21/02:00pm 29.0 - - - - NE 37 46 20 25 1009.3 1009.2 -
21/01:30pm 28.8 - - - - NE 33 41 18 22 1009.9 1009.8 -
21/01:00pm 28.7 - - - - NE 37 43 20 23 1010.2 1010.1 -
21/12:30pm 29.0 - - - - NE 39 46 21 25 1010.4 1010.3 -
21/12:00pm 29.0 - - - - ENE 39 52 21 28 1010.4 1010.3 -
21/11:30am 29.0 - - - - ENE 39 50 21 27 1010.9 1010.8 -
21/11:00am 29.1 - - - - ENE 35 44 19 24 1011.3 1011.2 -
21/10:30am 29.4 - - - - ENE 33 41 18 22 1011.8 1011.7 -
21/10:00am 29.2 - - - - ENE 35 44 19 24 1011.7 1011.6 -
21/09:30am 29.2 - - - - ENE 37 48 20 26 1011.9 1011.8 -
21/09:00am 29.3 - - - - ENE 37 46 20 25 1012.1 1012.0 -
21/08:30am 29.0 - - - - ENE 35 43 19 23 1012.0 1011.9 -
21/08:00am 29.3 - - - - ENE 35 46 19 25 1011.8 1011.7 -
21/07:30am 29.1 - - - - ENE 35 44 19 24 1011.4 1011.3 -
21/07:00am 29.0 - - - - E 32 41 17 22 1011.3 1011.2 -
21/06:30am 29.2 - - - - ENE 32 37 17 20 1011.2 1011.1 -
21/06:00am 29.3 - - - - ENE 33 39 18 21 1010.8 1010.7 -
21/05:30am 29.4 - - - - ENE 28 33 15 18 1010.4 1010.3 -
21/05:00am 29.6 - - - - E 26 32 14 17 1010.6 1010.5 -
21/04:30am 29.4 - - - - ENE 20 26 11 14 1010.7 1010.6 -
21/04:00am 28.3 - - - - ESE 17 22 9 12 1011.0 1010.9 -
21/03:30am 29.4 - - - - NE 19 24 10 13 1010.9 1010.8 -
21/03:00am 29.3 - - - - NE 17 20 9 11 1010.9 1010.8 -
21/02:30am 29.5 - - - - NE 20 26 11 14 1010.8 1010.7 -
21/02:00am 29.5 - - - - NE 20 24 11 13 1010.9 1010.8 -
21/01:30am 29.6 - - - - NE 22 26 12 14 1011.0 1010.9 -
21/01:00am 29.5 - - - - ENE 20 24 11 13 1011.2 1011.1 -
21/12:30am 29.7 - - - - ENE 20 24 11 13 1011.2 1011.1 -
21/12:00am 29.7 - - - - NE 20 22 11 12 1011.6 1011.5 -
 
Date/Time
WST
Temp
°C
App
Temp
°C
Dew
Point
Rel
Hum
%
Delta-T
°C
Wind Press
QNH
hPa
Press
MSL
hPa
Rain
since 9 am
mm
Dir
 
Spd
km/h
Gust
km/h
Spd
kts
Gust
kts
20/11:30pm 29.8 - - - - NE 17 20 9 11 1011.8 1011.7 -
20/11:00pm 29.7 - - - - NE 17 20 9 11 1011.6 1011.5 -
20/10:30pm 29.6 - - - - NE 19 20 10 11 1011.7 1011.6 -
20/10:00pm 29.2 - - - - NE 15 17 8 9 1011.8 1011.7 -
20/09:30pm 28.9 - - - - NE 19 20 10 11 1011.6 1011.5 -
20/09:00pm 29.0 - - - - NE 17 19 9 10 1011.8 1011.7 -
20/08:30pm 29.1 - - - - NE 19 20 10 11 1011.7 1011.6 -
20/08:00pm 29.1 - - - - NE 19 20 10 11 1011.6 1011.5 -
20/07:30pm 29.1 - - - - ENE 19 22 10 12 1011.3 1011.2 -
20/07:00pm 29.1 - - - - NE 19 24 10 13 1011.2 1011.1 -
20/06:30pm 29.2 - - - - ENE 19 24 10 13 1010.8 1010.7 -
20/06:00pm 29.3 - - - - ENE 22 26 12 14 1010.2 1010.1 -
20/05:30pm 29.1 - - - - ENE 22 28 12 15 1010.0 1009.9 -
20/05:00pm 29.1 - - - - ENE 22 26 12 14 1010.1 1010.0 -
20/04:30pm 29.1 - - - - NE 24 30 13 16 1009.9 1009.8 -
20/04:00pm 29.0 - - - - NE 28 33 15 18 1009.7 1009.6 -
20/03:30pm 29.0 - - - - ENE 26 32 14 17 1009.6 1009.5 -
20/03:00pm 29.0 - - - - ENE 28 35 15 19 1009.7 1009.6 -
20/02:30pm 29.1 - - - - ENE 28 33 15 18 1009.9 1009.8 -
20/02:00pm 29.4 - - - - ENE 28 37 15 20 1010.2 1010.1 -
20/01:30pm 29.0 - - - - ENE 28 33 15 18 1010.2 1010.1 -
20/01:00pm 28.9 - - - - ENE 30 35 16 19 1010.1 1010.0 -
20/12:30pm 28.9 - - - - ENE 28 33 15 18 1010.5 1010.4 -
20/12:00pm 28.7 - - - - ENE 32 35 17 19 1010.7 1010.6 -
20/11:30am 28.6 - - - - ENE 32 39 17 21 1010.9 1010.8 -
20/11:00am 28.5 - - - - E 33 41 18 22 1011.1 1011.0 -
20/10:30am 28.4 - - - - E 33 43 18 23 1011.6 1011.5 -
20/10:00am 28.3 - - - - E 32 39 17 21 1012.2 1012.1 -
20/09:30am 28.1 - - - - E 32 39 17 21 1012.3 1012.2 -
20/09:00am 28.4 - - - - ESE 33 44 18 24 1012.6 1012.5 -
20/08:30am 28.0 - - - - ESE 32 37 17 20 1012.7 1012.6 -
20/08:00am 27.5 - - - - ESE 32 39 17 21 1012.6 1012.5 -
20/07:30am 27.3 - - - - SE 33 43 18 23 1012.4 1012.3 -
20/07:00am 27.7 - - - - ESE 32 39 17 21 1012.4 1012.3 -
20/06:30am 28.0 - - - - ESE 24 32 13 17 1012.5 1012.4 -
20/06:00am 27.6 - - - - E 24 30 13 16 1011.9 1011.8 -
20/05:30am 27.6 - - - - E 22 30 12 16 1011.3 1011.2 -
20/05:00am 27.4 - - - - E 26 32 14 17 1011.1 1011.0 -
20/04:30am 27.1 - - - - E 26 32 14 17 1010.8 1010.7 -
20/04:00am 27.1 - - - - NE 26 32 14 17 1011.0 1010.9 -
20/03:30am 27.2 - - - - NE 28 32 15 17 1010.9 1010.8 -
20/03:00am 27.0 - - - - NE 28 33 15 18 1011.7 1011.6 -
20/02:30am 27.2 - - - - - - - - - 1011.8 1011.7 -
20/02:00am 27.9 - - - - ENE 39 46 21 25 1012.0 1011.9 -
20/01:30am 27.7 - - - - E 37 44 20 24 1011.9 1011.8 -
20/01:00am 27.7 - - - - ESE 41 52 22 28 1012.0 1011.9 -
20/12:30am 27.7 - - - - ESE 33 44 18 24 1012.5 1012.4 -
20/12:00am 28.1 - - - - E 37 44 20 24 1013.0 1012.9 -
 
Date/Time
WST
Temp
°C
App
Temp
°C
Dew
Point
Rel
Hum
%
Delta-T
°C
Wind Press
QNH
hPa
Press
MSL
hPa
Rain
since 9 am
mm
Dir
 
Spd
km/h
Gust
km/h
Spd
kts
Gust
kts
19/11:30pm 28.4 - - - - E 35 43 19 23 1013.0 1012.9 -
19/11:00pm 28.9 - - - - ESE 28 35 15 19 1013.1 1013.0 -
19/10:30pm 28.2 - - - - ESE 26 35 14 19 1013.3 1013.2 -
19/10:00pm 28.2 - - - - E 24 32 13 17 1013.5 1013.4 -
19/09:30pm 28.4 - - - - E 15 17 8 9 1013.4 1013.3 -
19/09:00pm 28.3 - - - - E 13 15 7 8 1013.5 1013.4 -
19/08:30pm 28.5 - - - - E 13 13 7 7 1013.5 1013.4 -
19/08:00pm 28.4 - - - - ESE 11 13 6 7 1013.7 1013.6 -
19/07:30pm 28.1 - - - - ESE 11 11 6 6 1013.5 1013.4 -
19/07:00pm 28.0 - - - - ESE 7 9 4 5 1012.7 1012.6 -
19/06:30pm 28.5 - - - - ESE 11 11 6 6 1012.0 1011.9 -
19/06:00pm 28.6 - - - - E 7 9 4 5 1011.8 1011.7 -
19/05:30pm 28.9 - - - - E 6 9 3 5 1011.7 1011.6 -
19/05:00pm 29.3 - - - - E 11 15 6 8 1011.4 1011.3 -
19/04:30pm 29.4 - - - - E 11 15 6 8 1011.2 1011.1 -
19/04:00pm 29.6 - - - - ESE 13 15 7 8 1010.9 1010.8 -
19/03:30pm 29.9 - - - - ESE 13 17 7 9 1010.8 1010.7 -
19/03:00pm 29.7 - - - - ESE 13 17 7 9 1010.6 1010.5 -
19/02:30pm 30.4 - - - - E 15 19 8 10 1010.5 1010.4 -
19/02:00pm 29.9 - - - - ENE 15 17 8 9 1010.5 1010.4 -
19/01:30pm 29.8 - - - - ENE 9 13 5 7 1010.7 1010.6 -
19/01:00pm 29.1 - - - - ENE 13 17 7 9 1011.2 1011.1 -
19/12:30pm 29.3 - - - - ESE 17 19 9 10 1011.5 1011.4 -
19/12:00pm 29.5 - - - - ESE 17 22 9 12 1011.7 1011.6 -
19/11:30am 28.9 - - - - E 19 22 10 12 1012.3 1012.2 -
19/11:00am 29.2 - - - - E 13 17 7 9 1012.6 1012.5 -
19/10:30am 29.0 - - - - ESE 11 13 6 7 1013.0 1012.9 -
19/10:00am 28.4 - - - - SE 7 11 4 6 1013.2 1013.1 -
19/09:30am 28.3 - - - - SE 13 17 7 9 1013.1 1013.0 -
19/09:00am 28.2 - - - - SE 13 - 7 - - 1013.1 -
19/08:30am 27.9 - - - - SE 17 22 9 12 1013.2 1013.1 -
19/08:00am 27.6 - - - - SE 13 17 7 9 1013.1 1013.0 -
19/07:30am 26.9 - - - - SSE 13 17 7 9 1012.8 1012.7 -
19/07:00am 26.6 - - - - SE 13 17 7 9 1012.6 1012.5 -
19/06:30am 26.4 - - - - SE 17 19 9 10 1012.0 1011.9 -
19/06:00am 25.5 - - - - SE 20 26 11 14 1011.6 1011.5 -
19/05:30am 26.0 - - - - ESE 28 35 15 19 1011.3 1011.2 -
19/05:00am 25.3 - - - - ESE 41 52 22 28 1011.0 1010.9 -
19/04:30am 26.3 - - - - ESE 37 56 20 30 1011.1 1011.0 -
19/04:24am 26.2 - - - - ESE 15 48 8 26 1011.0 1010.9 -
19/04:00am 28.7 - - - - CALM 0 0 0 0 1010.3 1010.2 -
19/03:30am 28.6 - - - - CALM 0 0 0 0 1010.3 1010.2 -
19/03:00am 28.7 - - - - N 7 7 4 4 1010.3 1010.2 -
19/02:30am 28.7 - - - - CALM 0 0 0 0 1010.7 1010.6 -
19/02:00am 28.7 - - - - CALM 0 0 0 0 1010.9 1010.8 -
19/01:30am 28.5 - - - - CALM 0 0 0 0 1011.0 1010.9 -
19/01:00am 28.6 - - - - CALM 0 0 0 0 1011.2 1011.1 -
19/12:30am 28.6 - - - - E 6 6 3 3 1011.5 1011.4 -
19/12:00am 28.4 - - - - CALM 0 6 0 3 1011.7 1011.6 -
 
Date/Time
WST
Temp
°C
App
Temp
°C
Dew
Point
Rel
Hum
%
Delta-T
°C
Wind Press
QNH
hPa
Press
MSL
hPa
Rain
since 9 am
mm
Dir
 
Spd
km/h
Gust
km/h
Spd
kts
Gust
kts
18/11:30pm 28.5 - - - - CALM 0 0 0 0 1012.0 1011.9 -
18/11:00pm 28.5 - - - - CALM 0 0 0 0 1012.1 1012.0 -

Other Formats:

Comma delimited format used in spreadsheet applications
http://www.bom.gov.au/fwo/IDW60801/IDW60801.94210.axf

JavaScript Object Notation format (JSON) in row-major order
http://www.bom.gov.au/fwo/IDW60801/IDW60801.94210.json